首页
METAR-TAF:

METAR-TAF

机场 :

Kindersley, 薩斯喀徹溫, 加拿大

纬度: 51-31N, 经度: 109-10W, 海拔: 694米

当前天气观测

该预报发布于27分钟前的01:00 UTC
风速14节,风向西
温度 -2°C
湿度 86%
气压 1008 hPa
能見度: 24.1公里
少量云层高于8500英尺
多云层高于13000英尺

METAR: CYKY 230100Z 28014KT 15SM FEW085 BKN130 M02/M04 A2978 RMK AC1AC7 AC TR SLP122

时间: 19:27 (01:27 UTC)


TAF: 丢失

超过4000个机场的气象观测和天气预报(METAR&TAF报告)。

可查询的气象台以黄色和红色小点在地图上表示。

将鼠标移到小点上方,可查看气象台名称。

然后点击查看天气观测和预报。

如需切换地图:点击带黑十字的绿色按钮放大地图;点击带横线的绿色按钮缩小地图;或者点击绿色箭头查看邻近地区的地图。


METAR-TAF: